createdAt,value
2022-11-18T00:02:31.415Z,9.55
2022-11-18T00:05:19.936Z,9.41
2022-11-18T00:08:08.476Z,9.57
2022-11-18T00:10:56.895Z,9.62
2022-11-18T00:14:02.973Z,9.61
2022-11-18T00:16:53.737Z,9.61
2022-11-18T00:19:43.641Z,9.62
2022-11-18T00:22:32.064Z,9.62
2022-11-18T00:25:20.556Z,9.61
2022-11-18T00:28:09.032Z,9.57
2022-11-18T00:31:02.678Z,9.57
2022-11-18T00:33:51.165Z,9.59
2022-11-18T00:36:41.178Z,9.58
2022-11-18T00:39:29.632Z,9.62
2022-11-18T00:42:35.730Z,9.61
2022-11-18T00:45:24.744Z,9.62
2022-11-18T00:48:13.204Z,9.58
2022-11-18T00:51:09.088Z,9.66
2022-11-18T00:53:58.878Z,9.56
2022-11-18T00:56:47.377Z,9.67
2022-11-18T00:59:35.866Z,9.59
2022-11-18T01:02:24.379Z,9.44
2022-11-18T01:05:12.828Z,9.62
2022-11-18T01:08:01.244Z,9.62
2022-11-18T01:10:52.321Z,9.64
2022-11-18T01:13:39.801Z,9.60
2022-11-18T01:16:29.483Z,9.62
2022-11-18T01:19:18.628Z,9.62
2022-11-18T01:22:07.355Z,9.62
2022-11-18T01:24:55.822Z,9.61
2022-11-18T01:27:45.640Z,9.64
2022-11-18T01:30:35.469Z,9.64
2022-11-18T01:33:23.916Z,9.64
2022-11-18T01:36:16.755Z,9.45
2022-11-18T01:39:05.300Z,9.64
2022-11-18T01:41:53.938Z,9.68
2022-11-18T01:45:25.633Z,9.66
2022-11-18T01:48:17.113Z,9.66
2022-11-18T01:51:07.456Z,9.64
2022-11-18T01:54:00.900Z,9.39
2022-11-18T01:56:53.151Z,9.52
2022-11-18T01:59:42.791Z,9.40
2022-11-18T02:02:34.929Z,9.59
2022-11-18T02:05:23.677Z,9.63
2022-11-18T02:08:12.456Z,9.59
2022-11-18T02:11:00.921Z,9.61
2022-11-18T02:13:49.432Z,9.61
2022-11-18T02:16:50.057Z,9.52
2022-11-18T02:20:12.906Z,9.57
2022-11-18T02:23:37.244Z,9.67
2022-11-18T02:27:08.679Z,9.67
2022-11-18T02:30:03.563Z,9.62
2022-11-18T02:32:55.859Z,9.63
2022-11-18T02:35:45.863Z,9.64
2022-11-18T02:38:38.749Z,9.62
2022-11-18T02:41:29.387Z,9.65
2022-11-18T02:44:18.922Z,9.69
2022-11-18T02:47:10.740Z,9.79
2022-11-18T02:50:01.600Z,9.80
2022-11-18T02:52:54.339Z,9.91
2022-11-18T02:55:44.224Z,10.03
2022-11-18T02:58:32.616Z,10.06
2022-11-18T03:01:25.354Z,10.00
2022-11-18T03:04:16.774Z,10.00
2022-11-18T03:07:10.946Z,10.03
2022-11-18T03:10:00.760Z,10.01
2022-11-18T03:12:54.144Z,9.90
2022-11-18T03:15:47.639Z,9.95
2022-11-18T03:18:42.649Z,9.96
2022-11-18T03:21:35.121Z,9.89
2022-11-18T03:24:27.707Z,9.91
2022-11-18T03:27:19.543Z,9.88
2022-11-18T03:30:10.297Z,9.86
2022-11-18T03:33:01.375Z,9.83
2022-11-18T03:35:52.639Z,9.79
2022-11-18T03:38:45.515Z,9.70
2022-11-18T03:41:36.504Z,9.72
2022-11-18T03:44:28.681Z,9.67
2022-11-18T03:47:20.368Z,9.41
2022-11-18T03:50:13.438Z,9.61
2022-11-18T03:53:02.625Z,9.60
2022-11-18T03:55:56.340Z,9.63
2022-11-18T03:58:49.262Z,9.67
2022-11-18T04:01:41.639Z,9.65
2022-11-18T04:04:30.422Z,9.69
2022-11-18T04:07:23.399Z,9.64
2022-11-18T04:10:15.302Z,9.61
2022-11-18T04:13:08.480Z,9.44
2022-11-18T04:15:56.969Z,9.75
2022-11-18T04:18:45.433Z,9.56
2022-11-18T04:21:33.943Z,9.57
2022-11-18T04:24:22.418Z,9.55
2022-11-18T04:27:11.220Z,9.45
2022-11-18T04:30:01.035Z,9.55
2022-11-18T04:32:49.633Z,9.55
2022-11-18T04:35:38.115Z,9.54
2022-11-18T04:38:26.566Z,9.53
2022-11-18T04:41:15.083Z,9.53
2022-11-18T04:44:12.820Z,9.44
2022-11-18T04:47:04.960Z,9.38
2022-11-18T04:49:53.418Z,9.33
2022-11-18T04:52:42.033Z,9.31
2022-11-18T04:55:30.472Z,9.36
2022-11-18T04:58:18.934Z,9.31
2022-11-18T05:01:07.454Z,9.40
2022-11-18T05:03:57.712Z,9.42
2022-11-18T05:06:46.420Z,9.33
2022-11-18T05:09:35.156Z,9.35
2022-11-18T05:12:37.550Z,9.28
2022-11-18T05:15:25.977Z,9.31
2022-11-18T05:18:14.437Z,9.31
2022-11-18T05:21:07.903Z,9.26
2022-11-18T05:23:56.338Z,9.19
2022-11-18T05:26:45.190Z,9.17
2022-11-18T05:29:34.015Z,9.14
2022-11-18T05:32:22.502Z,9.03
2022-11-18T05:35:10.919Z,8.98
2022-11-18T05:38:02.527Z,8.95
2022-11-18T05:40:50.971Z,8.88
2022-11-18T05:43:38.424Z,8.84
2022-11-18T05:46:27.316Z,8.79
2022-11-18T05:49:16.161Z,8.59
2022-11-18T05:52:06.475Z,8.75
2022-11-18T05:54:56.283Z,8.85
2022-11-18T05:57:44.722Z,8.85
2022-11-18T06:00:33.595Z,8.88
2022-11-18T06:03:30.296Z,8.56
2022-11-18T06:06:22.860Z,8.78
2022-11-18T06:09:11.895Z,8.76
2022-11-18T06:12:03.115Z,8.73
2022-11-18T06:14:53.631Z,8.69
2022-11-18T06:17:46.347Z,8.65
2022-11-18T06:20:35.410Z,8.69
2022-11-18T06:23:24.052Z,8.63
2022-11-18T06:26:14.891Z,8.65
2022-11-18T06:29:06.426Z,8.63
2022-11-18T06:31:54.860Z,8.65
2022-11-18T06:34:43.300Z,8.69
2022-11-18T06:37:31.710Z,8.63
2022-11-18T06:40:20.176Z,8.52
2022-11-18T06:43:26.630Z,8.49
2022-11-18T06:46:35.876Z,8.63
2022-11-18T06:49:24.651Z,8.51
2022-11-18T06:52:13.056Z,8.61
2022-11-18T06:55:01.691Z,8.67
2022-11-18T06:57:50.125Z,8.62
2022-11-18T07:00:38.626Z,8.62
2022-11-18T07:03:28.432Z,8.78
2022-11-18T07:06:18.681Z,8.72
2022-11-18T07:09:08.241Z,8.71
2022-11-18T07:11:56.793Z,8.69
2022-11-18T07:14:45.311Z,8.62
2022-11-18T07:17:33.931Z,8.49
2022-11-18T07:20:23.719Z,8.75
2022-11-18T07:23:12.196Z,8.81
2022-11-18T07:26:00.777Z,8.86
2022-11-18T07:28:49.295Z,8.73
2022-11-18T07:31:39.648Z,8.64
2022-11-18T07:34:28.138Z,8.82
2022-11-18T07:37:18.023Z,8.83
2022-11-18T07:40:07.898Z,8.80
2022-11-18T07:42:56.433Z,8.83
2022-11-18T07:45:44.889Z,8.90
2022-11-18T07:48:33.359Z,8.88
2022-11-18T07:51:23.287Z,8.93
2022-11-18T07:54:14.413Z,8.92
2022-11-18T07:57:02.854Z,8.93
2022-11-18T07:59:51.282Z,9.00
2022-11-18T08:02:43.565Z,8.92
2022-11-18T08:05:32.058Z,9.01
2022-11-18T08:08:20.604Z,9.11
2022-11-18T08:11:16.246Z,9.02
2022-11-18T08:14:09.020Z,9.00
2022-11-18T08:16:57.559Z,9.01
2022-11-18T08:19:46.009Z,8.97
2022-11-18T08:22:34.503Z,9.08
2022-11-18T08:25:22.996Z,9.08
2022-11-18T08:28:13.404Z,9.17
2022-11-18T08:31:01.940Z,9.11
2022-11-18T08:33:50.455Z,9.05
2022-11-18T08:36:39.607Z,8.83
2022-11-18T08:39:28.100Z,9.09
2022-11-18T08:42:16.629Z,9.20
2022-11-18T08:45:08.421Z,9.23
2022-11-18T08:47:57.117Z,9.06
2022-11-18T08:50:45.604Z,9.15
2022-11-18T08:53:34.120Z,9.20
2022-11-18T08:56:24.206Z,9.44
2022-11-18T08:59:14.768Z,9.55
2022-11-18T09:02:04.676Z,9.64
2022-11-18T09:04:53.613Z,9.73
2022-11-18T09:07:42.126Z,9.68
2022-11-18T09:10:30.632Z,9.61
2022-11-18T09:13:44.769Z,9.63
2022-11-18T09:16:29.129Z,9.64
2022-11-18T09:22:27.823Z,9.68
2022-11-18T09:25:16.453Z,9.63
2022-11-18T09:28:05.026Z,9.71
2022-11-18T09:30:53.496Z,9.77
2022-11-18T09:33:42.444Z,9.79
2022-11-18T09:36:32.280Z,9.74
2022-11-18T09:39:20.878Z,9.82
2022-11-18T09:42:23.956Z,9.83
2022-11-18T09:45:24.593Z,9.85
2022-11-18T09:48:17.548Z,9.67
2022-11-18T09:51:06.511Z,9.86
2022-11-18T09:53:56.391Z,9.83
2022-11-18T09:56:45.014Z,9.81
2022-11-18T09:59:33.694Z,9.84
2022-11-18T10:02:38.832Z,9.84
2022-11-18T10:05:29.309Z,9.85
2022-11-18T10:08:23.449Z,9.87
2022-11-18T10:11:15.827Z,9.91
2022-11-18T10:14:15.833Z,9.85
2022-11-18T10:17:08.998Z,9.93
2022-11-18T10:20:05.215Z,9.88
2022-11-18T10:22:56.651Z,9.93
2022-11-18T10:25:45.139Z,9.94
2022-11-18T10:28:35.166Z,9.68
2022-11-18T10:31:23.598Z,9.95
2022-11-18T10:34:14.532Z,10.04
2022-11-18T10:37:04.843Z,9.86
2022-11-18T10:39:54.776Z,10.24
2022-11-18T10:42:45.965Z,10.25
2022-11-18T10:45:36.030Z,10.44
2022-11-18T10:48:24.579Z,10.55
2022-11-18T10:51:22.671Z,10.69
2022-11-18T10:54:16.488Z,10.78
2022-11-18T10:57:07.684Z,10.71
2022-11-18T10:59:57.743Z,10.58
2022-11-18T11:02:47.682Z,10.68
2022-11-18T11:05:36.153Z,10.62
2022-11-18T11:08:39.808Z,10.56
2022-11-18T11:11:30.072Z,10.33
2022-11-18T11:14:22.719Z,10.62
2022-11-18T11:17:13.802Z,10.62
2022-11-18T11:20:06.978Z,10.54
2022-11-18T11:22:55.885Z,10.64
2022-11-18T11:28:58.017Z,10.80
2022-11-18T11:31:50.720Z,10.84
2022-11-18T11:34:44.681Z,10.91
2022-11-18T11:37:46.570Z,10.96
2022-11-18T11:40:38.605Z,10.91
2022-11-18T11:43:36.578Z,10.97
2022-11-18T11:46:29.520Z,10.90
2022-11-18T11:49:23.409Z,11.05
2022-11-18T11:52:20.563Z,11.18
2022-11-18T11:55:20.098Z,11.08
2022-11-18T11:58:20.702Z,11.22
2022-11-18T12:01:20.674Z,10.99
2022-11-18T12:04:20.021Z,11.17
2022-11-18T12:07:14.330Z,11.15
2022-11-18T12:10:10.193Z,11.10
2022-11-18T12:13:10.741Z,11.18
2022-11-18T12:16:05.230Z,11.06
2022-11-18T12:18:58.541Z,11.14
2022-11-18T12:21:58.199Z,11.11
2022-11-18T12:24:46.658Z,11.22
2022-11-18T12:27:59.100Z,11.19
2022-11-18T12:30:48.974Z,11.07
2022-11-18T12:33:43.561Z,10.26
2022-11-18T12:36:33.410Z,11.08
2022-11-18T12:39:58.607Z,11.15
2022-11-18T12:43:05.750Z,11.23
2022-11-18T12:46:01.503Z,11.03
2022-11-18T12:48:49.950Z,11.46
2022-11-18T12:51:42.342Z,11.65
2022-11-18T12:54:36.076Z,11.70
2022-11-18T12:57:26.238Z,11.84
2022-11-18T13:00:28.108Z,11.94
2022-11-18T13:03:24.265Z,11.76
2022-11-18T13:06:24.685Z,11.95
2022-11-18T13:09:17.460Z,11.90
2022-11-18T13:12:12.688Z,11.30
2022-11-18T13:15:20.543Z,11.77
2022-11-18T13:18:14.313Z,11.74
2022-11-18T13:21:24.271Z,11.68
2022-11-18T13:24:12.712Z,11.25
2022-11-18T13:27:01.208Z,11.41
2022-11-18T13:29:54.241Z,11.35
2022-11-18T13:32:44.569Z,11.34
2022-11-18T13:35:33.087Z,11.42
2022-11-18T13:38:28.492Z,11.34
2022-11-18T13:41:24.057Z,11.44
2022-11-18T13:44:16.254Z,11.42
2022-11-18T13:47:09.841Z,11.33
2022-11-18T13:50:04.834Z,11.25
2022-11-18T13:53:03.119Z,11.16
2022-11-18T13:55:55.259Z,11.08
2022-11-18T13:59:15.887Z,11.00
2022-11-18T14:01:56.226Z,10.84
2022-11-18T14:04:54.269Z,10.93
2022-11-18T14:07:42.813Z,10.90
2022-11-18T14:10:39.137Z,10.89
2022-11-18T14:13:31.748Z,10.81
2022-11-18T14:16:33.155Z,10.76
2022-11-18T14:19:30.351Z,10.06
2022-11-18T14:22:20.825Z,10.80
2022-11-18T14:25:18.158Z,10.77
2022-11-18T14:28:14.445Z,10.74
2022-11-18T14:33:40.352Z,10.66
2022-11-18T14:36:28.897Z,10.65
2022-11-18T14:39:27.526Z,10.59
2022-11-18T14:42:16.732Z,10.58
2022-11-18T14:45:05.702Z,10.53
2022-11-18T14:47:54.155Z,10.49
2022-11-18T14:50:44.155Z,10.45
2022-11-18T14:53:32.646Z,10.39
2022-11-18T14:56:27.488Z,10.44
2022-11-18T14:59:18.073Z,10.40
2022-11-18T15:02:06.591Z,10.37
2022-11-18T15:04:56.119Z,10.35
2022-11-18T15:07:45.947Z,10.34
2022-11-18T15:10:34.534Z,10.33
2022-11-18T15:13:22.959Z,10.33
2022-11-18T15:16:15.010Z,10.31
2022-11-18T15:19:05.947Z,10.28
2022-11-18T15:21:54.462Z,10.31
2022-11-18T15:24:44.353Z,10.28
2022-11-18T15:27:32.828Z,10.25
2022-11-18T15:30:21.687Z,10.23
2022-11-18T15:33:10.131Z,10.22
2022-11-18T15:35:58.652Z,10.15
2022-11-18T15:38:47.743Z,10.17
2022-11-18T15:41:39.327Z,10.14
2022-11-18T15:44:28.466Z,10.14
2022-11-18T15:47:33.465Z,10.10
2022-11-18T15:50:21.970Z,10.14
2022-11-18T15:53:10.398Z,10.13
2022-11-18T15:56:17.270Z,10.12
2022-11-18T15:59:10.707Z,10.11
2022-11-18T16:01:59.226Z,10.07
2022-11-18T16:04:47.782Z,10.06
2022-11-18T16:07:36.270Z,10.11
2022-11-18T16:10:42.552Z,10.12
2022-11-18T16:13:30.997Z,10.11
2022-11-18T16:16:21.631Z,10.09
2022-11-18T16:19:11.426Z,10.05
2022-11-18T16:22:00.041Z,10.06
2022-11-18T16:24:48.718Z,10.01
2022-11-18T16:27:37.354Z,10.05
2022-11-18T16:30:43.171Z,10.04
2022-11-18T16:33:32.976Z,9.90
2022-11-18T16:36:26.928Z,10.04
2022-11-18T16:39:17.097Z,9.85
2022-11-18T16:42:08.634Z,10.00
2022-11-18T16:44:57.620Z,9.98
2022-11-18T16:47:46.597Z,10.02
2022-11-18T16:50:36.387Z,10.01
2022-11-18T16:53:24.850Z,9.98
2022-11-18T16:56:13.366Z,10.00
2022-11-18T16:59:03.522Z,10.05
2022-11-18T17:01:53.351Z,10.06
2022-11-18T17:04:42.214Z,10.07
2022-11-18T17:07:38.086Z,10.08
2022-11-18T17:10:27.207Z,10.06
2022-11-18T17:13:15.724Z,10.09
2022-11-18T17:16:08.705Z,10.15
2022-11-18T17:18:58.515Z,10.01
2022-11-18T17:21:47.133Z,9.08
2022-11-18T17:24:37.002Z,10.00
2022-11-18T17:27:25.530Z,10.02
2022-11-18T17:30:15.321Z,9.97
2022-11-18T17:33:03.888Z,9.95
2022-11-18T17:36:02.241Z,9.52
2022-11-18T17:38:52.062Z,9.94
2022-11-18T17:41:59.683Z,9.90
2022-11-18T17:44:48.138Z,9.89
2022-11-18T17:47:36.657Z,9.97
2022-11-18T17:50:25.324Z,9.92
2022-11-18T17:53:13.882Z,9.97
2022-11-18T17:56:04.162Z,9.98
2022-11-18T17:58:55.657Z,9.91
2022-11-18T18:01:44.288Z,9.96
2022-11-18T18:04:32.825Z,9.92
2022-11-18T18:07:21.296Z,9.77
2022-11-18T18:10:10.644Z,9.92
2022-11-18T18:13:16.859Z,9.89
2022-11-18T18:16:06.971Z,9.94
2022-11-18T18:18:55.779Z,9.96
2022-11-18T18:21:44.477Z,9.91
2022-11-18T18:24:33.058Z,9.92
2022-11-18T18:27:21.511Z,9.91
2022-11-18T18:30:11.371Z,9.85
2022-11-18T18:33:01.245Z,9.87
2022-11-18T18:35:49.718Z,9.88
2022-11-18T18:38:39.334Z,9.84
2022-11-18T18:41:27.857Z,10.03
2022-11-18T18:44:18.823Z,9.89
2022-11-18T18:47:06.568Z,9.91
2022-11-18T18:49:56.452Z,9.84
2022-11-18T18:52:44.939Z,9.85
2022-11-18T18:55:33.425Z,9.91
2022-11-18T18:58:21.838Z,9.80
2022-11-18T19:01:12.403Z,9.79
2022-11-18T19:04:02.142Z,9.74
2022-11-18T19:06:58.968Z,9.76
2022-11-18T19:09:48.498Z,9.73
2022-11-18T19:12:51.683Z,9.71
2022-11-18T19:15:42.337Z,9.71
2022-11-18T19:18:35.291Z,9.52
2022-11-18T19:21:23.766Z,9.73
2022-11-18T19:24:28.667Z,9.68
2022-11-18T19:27:22.183Z,9.70
2022-11-18T19:30:11.847Z,9.69
2022-11-18T19:33:01.231Z,9.65
2022-11-18T19:35:51.110Z,9.53
2022-11-18T19:38:40.403Z,9.56
2022-11-18T19:41:30.285Z,9.52
2022-11-18T19:44:18.739Z,9.52
2022-11-18T19:47:07.249Z,9.57
2022-11-18T19:49:56.051Z,9.58
2022-11-18T19:52:44.519Z,9.48
2022-11-18T19:55:33.241Z,9.44
2022-11-18T19:58:23.125Z,9.37
2022-11-18T20:01:14.030Z,9.32
2022-11-18T20:04:03.157Z,9.33
2022-11-18T20:06:51.732Z,9.20
2022-11-18T20:09:40.273Z,9.21
2022-11-18T20:12:29.696Z,9.22
2022-11-18T20:15:19.552Z,9.18
2022-11-18T20:18:08.106Z,9.13
2022-11-18T20:20:56.532Z,9.17
2022-11-18T20:23:46.195Z,9.23
2022-11-18T20:26:36.530Z,9.25
2022-11-18T20:29:25.201Z,9.29
2022-11-18T20:32:15.159Z,9.27
2022-11-18T20:35:03.660Z,9.26
2022-11-18T20:37:52.120Z,9.36
2022-11-18T20:40:40.619Z,9.34
2022-11-18T20:43:30.452Z,9.29
2022-11-18T20:46:20.953Z,9.28
2022-11-18T20:49:11.461Z,9.28
2022-11-18T20:51:59.990Z,9.27
2022-11-18T20:54:48.536Z,9.28
2022-11-18T20:57:37.103Z,9.32
2022-11-18T21:00:25.575Z,9.31
2022-11-18T21:03:14.071Z,9.26
2022-11-18T21:06:13.598Z,9.19
2022-11-18T21:09:04.785Z,9.07
2022-11-18T21:11:53.224Z,9.10
2022-11-18T21:14:42.105Z,9.04
2022-11-18T21:17:30.539Z,9.05
2022-11-18T21:20:33.050Z,9.13
2022-11-18T21:23:22.929Z,9.07
2022-11-18T21:26:13.426Z,9.08
2022-11-18T21:29:03.564Z,8.99
2022-11-18T21:31:52.665Z,8.97
2022-11-18T21:34:41.227Z,8.94
2022-11-18T21:37:29.686Z,8.86
2022-11-18T21:40:19.967Z,8.95
2022-11-18T21:43:08.431Z,8.90
2022-11-18T21:46:01.568Z,8.86
2022-11-18T21:48:51.252Z,8.92
2022-11-18T21:51:41.057Z,8.95
2022-11-18T21:54:30.615Z,8.20
2022-11-18T21:57:21.230Z,8.87
2022-11-18T22:00:11.481Z,8.89
2022-11-18T22:03:00.276Z,8.76
2022-11-18T22:05:48.771Z,8.94
2022-11-18T22:08:40.966Z,8.89
2022-11-18T22:11:29.839Z,8.87
2022-11-18T22:14:19.837Z,8.81
2022-11-18T22:17:08.863Z,8.83
2022-11-18T22:19:57.421Z,8.95
2022-11-18T22:22:46.012Z,8.89
2022-11-18T22:25:34.557Z,8.84
2022-11-18T22:28:23.591Z,8.81
2022-11-18T22:31:16.115Z,8.83
2022-11-18T22:34:04.914Z,8.85
2022-11-18T22:36:53.382Z,8.85
2022-11-18T22:39:42.280Z,8.80
2022-11-18T22:42:47.345Z,8.87
2022-11-18T22:45:35.793Z,8.96
2022-11-18T22:48:25.586Z,8.87
2022-11-18T22:51:14.084Z,8.91
2022-11-18T22:57:11.002Z,8.87
2022-11-18T22:59:59.451Z,8.82
2022-11-18T23:02:47.924Z,8.86
2022-11-18T23:05:38.256Z,8.77
2022-11-18T23:08:27.671Z,8.77
2022-11-18T23:11:39.053Z,8.78
2022-11-18T23:14:26.574Z,8.81
2022-11-18T23:17:15.955Z,8.76
2022-11-18T23:20:05.133Z,8.84
2022-11-18T23:22:54.882Z,8.65
2022-11-18T23:25:43.365Z,8.81
2022-11-18T23:28:32.072Z,8.69
2022-11-18T23:31:21.984Z,8.75
2022-11-18T23:34:12.389Z,8.71
2022-11-18T23:37:00.812Z,8.69
2022-11-18T23:39:50.590Z,8.73
2022-11-18T23:42:39.026Z,8.73
2022-11-18T23:45:27.487Z,8.80
2022-11-18T23:48:16.058Z,8.68
2022-11-18T23:51:05.862Z,8.68
2022-11-18T23:53:55.664Z,8.72
2022-11-18T23:56:45.500Z,8.72
2022-11-18T23:59:34.160Z,8.63
